createdAt,value
2023-07-09T00:01:32.222Z,20.57
2023-07-09T00:03:59.913Z,20.53
2023-07-09T00:06:27.637Z,20.48
2023-07-09T00:08:55.339Z,20.43
2023-07-09T00:11:23.230Z,20.39
2023-07-09T00:13:51.006Z,20.35
2023-07-09T00:16:22.800Z,20.31
2023-07-09T00:18:52.084Z,20.25
2023-07-09T00:21:21.351Z,20.21
2023-07-09T00:23:49.980Z,20.16
2023-07-09T00:26:21.647Z,20.11
2023-07-09T00:28:49.429Z,20.05
2023-07-09T00:31:18.586Z,20.01
2023-07-09T00:33:47.603Z,19.95
2023-07-09T00:36:20.737Z,19.90
2023-07-09T00:38:49.230Z,19.87
2023-07-09T00:41:20.295Z,19.84
2023-07-09T00:43:49.684Z,19.79
2023-07-09T00:46:50.853Z,19.75
2023-07-09T00:49:31.926Z,19.71
2023-07-09T00:52:04.000Z,19.67
2023-07-09T00:54:37.829Z,19.60
2023-07-09T00:57:11.062Z,19.57
2023-07-09T00:59:38.954Z,19.51
2023-07-09T01:02:08.914Z,19.45
2023-07-09T01:04:37.252Z,19.40
2023-07-09T01:07:06.856Z,19.37
2023-07-09T01:09:36.730Z,19.33
2023-07-09T01:12:07.762Z,19.31
2023-07-09T01:14:37.064Z,19.27
2023-07-09T01:17:09.418Z,19.23
2023-07-09T01:19:44.495Z,19.20
2023-07-09T01:22:16.301Z,19.15
2023-07-09T01:24:56.998Z,19.09
2023-07-09T01:27:27.563Z,19.06
2023-07-09T01:29:56.744Z,19.02
2023-07-09T01:32:24.611Z,18.96
2023-07-09T01:34:55.326Z,18.93
2023-07-09T01:37:27.590Z,18.90
2023-07-09T01:39:55.504Z,18.84
2023-07-09T01:42:25.156Z,18.82
2023-07-09T01:44:55.473Z,18.77
2023-07-09T01:47:25.076Z,18.73
2023-07-09T01:49:58.330Z,18.67
2023-07-09T01:52:31.043Z,18.64
2023-07-09T01:54:59.340Z,18.59
2023-07-09T01:57:34.382Z,18.56
2023-07-09T02:00:06.843Z,18.51
2023-07-09T02:02:43.950Z,18.47
2023-07-09T02:05:13.912Z,18.45
2023-07-09T02:07:43.072Z,18.36
2023-07-09T02:10:11.960Z,18.29
2023-07-09T02:12:39.860Z,18.26
2023-07-09T02:15:09.004Z,18.23
2023-07-09T02:17:36.969Z,18.19
2023-07-09T02:20:06.342Z,18.16
2023-07-09T02:22:34.197Z,18.13
2023-07-09T02:25:03.605Z,18.10
2023-07-09T02:27:31.401Z,18.05
2023-07-09T02:29:59.050Z,17.99
2023-07-09T02:32:28.695Z,17.98
2023-07-09T02:34:57.472Z,17.93
2023-07-09T02:37:27.382Z,17.90
2023-07-09T02:39:55.357Z,17.86
2023-07-09T02:42:25.247Z,17.83
2023-07-09T02:44:53.598Z,17.80
2023-07-09T02:47:22.152Z,17.77
2023-07-09T02:49:51.195Z,17.72
2023-07-09T02:52:19.518Z,17.70
2023-07-09T02:54:47.203Z,17.67
2023-07-09T02:57:14.995Z,17.64
2023-07-09T02:59:44.352Z,17.61
2023-07-09T03:02:14.604Z,17.59
2023-07-09T03:04:42.325Z,17.56
2023-07-09T03:07:10.036Z,17.54
2023-07-09T03:09:37.778Z,17.53
2023-07-09T03:12:06.307Z,17.49
2023-07-09T03:14:34.581Z,17.48
2023-07-09T03:17:03.803Z,17.47
2023-07-09T03:19:31.918Z,17.44
2023-07-09T03:22:00.634Z,17.41
2023-07-09T03:24:28.321Z,17.40
2023-07-09T03:26:55.966Z,17.38
2023-07-09T03:29:23.601Z,17.36
2023-07-09T03:31:51.369Z,17.33
2023-07-09T03:34:20.355Z,17.31
2023-07-09T03:36:48.015Z,17.27
2023-07-09T03:39:15.656Z,17.24
2023-07-09T03:41:43.333Z,17.21
2023-07-09T03:44:10.998Z,17.20
2023-07-09T03:46:38.671Z,17.18
2023-07-09T03:49:06.376Z,17.17
2023-07-09T03:51:35.386Z,17.17
2023-07-09T03:54:03.043Z,17.15
2023-07-09T03:56:30.714Z,17.15
2023-07-09T03:58:58.579Z,17.14
2023-07-09T04:01:26.243Z,17.13
2023-07-09T04:03:53.942Z,17.13
2023-07-09T04:06:21.672Z,17.11
2023-07-09T04:08:50.904Z,17.12
2023-07-09T04:11:18.866Z,17.12
2023-07-09T04:13:46.580Z,17.12
2023-07-09T04:16:14.450Z,17.13
2023-07-09T04:18:44.620Z,17.14
2023-07-09T04:21:12.254Z,17.16
2023-07-09T04:23:39.996Z,17.17
2023-07-09T04:26:13.595Z,17.20
2023-07-09T04:28:41.249Z,17.22
2023-07-09T04:31:08.950Z,17.24
2023-07-09T04:33:37.076Z,17.27
2023-07-09T04:36:07.941Z,17.30
2023-07-09T04:38:35.602Z,17.34
2023-07-09T04:41:03.429Z,17.39
2023-07-09T04:43:32.839Z,17.44
2023-07-09T04:46:00.642Z,17.49
2023-07-09T04:48:28.456Z,17.54
2023-07-09T04:50:56.093Z,17.59
2023-07-09T04:53:25.214Z,17.65
2023-07-09T04:55:53.056Z,17.71
2023-07-09T04:58:20.720Z,17.76
2023-07-09T05:00:51.893Z,17.83
2023-07-09T05:03:20.727Z,17.87
2023-07-09T05:05:49.208Z,17.99
2023-07-09T05:08:17.728Z,18.07
2023-07-09T05:10:45.633Z,18.12
2023-07-09T05:13:14.024Z,18.20
2023-07-09T05:15:43.611Z,18.27
2023-07-09T05:18:13.176Z,18.36
2023-07-09T05:20:41.902Z,18.45
2023-07-09T05:23:10.318Z,18.53
2023-07-09T05:25:38.248Z,18.61
2023-07-09T05:28:06.934Z,18.68
2023-07-09T05:30:34.927Z,18.77
2023-07-09T05:33:02.628Z,18.85
2023-07-09T05:35:31.628Z,18.94
2023-07-09T05:37:59.250Z,19.03
2023-07-09T05:40:26.900Z,19.11
2023-07-09T05:42:54.540Z,19.20
2023-07-09T05:45:22.169Z,19.29
2023-07-09T05:47:49.806Z,19.37
2023-07-09T05:50:17.725Z,19.47
2023-07-09T05:52:46.754Z,19.54
2023-07-09T05:55:14.392Z,19.61
2023-07-09T05:57:42.030Z,19.69
2023-07-09T06:00:13.083Z,19.77
2023-07-09T06:02:44.678Z,19.86
2023-07-09T06:05:13.052Z,19.95
2023-07-09T06:07:41.296Z,20.04
2023-07-09T06:10:11.639Z,20.12
2023-07-09T06:12:39.321Z,20.20
2023-07-09T06:15:08.509Z,20.28
2023-07-09T06:17:36.253Z,20.37
2023-07-09T06:20:04.893Z,20.46
2023-07-09T06:22:32.620Z,20.55
2023-07-09T06:25:00.281Z,20.64
2023-07-09T06:27:29.305Z,20.74
2023-07-09T06:29:56.952Z,20.83
2023-07-09T06:32:24.647Z,20.90
2023-07-09T06:34:52.829Z,20.96
2023-07-09T06:37:20.483Z,21.06
2023-07-09T06:39:48.135Z,21.15
2023-07-09T06:42:16.236Z,21.23
2023-07-09T06:45:07.717Z,21.34
2023-07-09T06:47:35.455Z,21.43
2023-07-09T06:50:04.321Z,21.52
2023-07-09T06:52:32.250Z,21.59
2023-07-09T06:55:00.001Z,21.68
2023-07-09T06:57:27.662Z,21.79
2023-07-09T06:59:55.771Z,21.90
2023-07-09T07:02:25.450Z,22.00
2023-07-09T07:04:53.254Z,22.08
2023-07-09T07:07:21.806Z,22.17
2023-07-09T07:09:49.536Z,22.28
2023-07-09T07:12:25.932Z,22.40
2023-07-09T07:14:53.647Z,22.52
2023-07-09T07:17:21.503Z,22.65
2023-07-09T07:19:52.320Z,22.77
2023-07-09T07:22:19.974Z,22.88
2023-07-09T07:24:47.942Z,22.99
2023-07-09T07:27:15.599Z,23.09
2023-07-09T07:29:43.570Z,23.19
2023-07-09T07:32:11.306Z,23.29
2023-07-09T07:34:39.073Z,23.41
2023-07-09T07:37:08.163Z,23.50
2023-07-09T07:39:35.840Z,23.58
2023-07-09T07:42:05.232Z,23.67
2023-07-09T07:44:35.139Z,23.78
2023-07-09T07:47:02.875Z,23.88
2023-07-09T07:49:30.610Z,24.00
2023-07-09T07:51:58.439Z,24.12
2023-07-09T07:54:27.407Z,24.23
2023-07-09T07:56:55.076Z,24.34
2023-07-09T07:59:22.870Z,24.44
2023-07-09T08:01:51.089Z,24.58
2023-07-09T08:04:19.832Z,24.69
2023-07-09T08:06:48.121Z,24.76
2023-07-09T08:09:15.745Z,24.86
2023-07-09T08:11:44.751Z,25.02
2023-07-09T08:14:13.189Z,25.12
2023-07-09T08:16:41.115Z,25.26
2023-07-09T08:19:09.085Z,25.41
2023-07-09T08:21:36.726Z,25.54
2023-07-09T08:24:04.636Z,25.68
2023-07-09T08:26:33.738Z,25.79
2023-07-09T08:29:02.770Z,25.92
2023-07-09T08:31:30.459Z,26.06
2023-07-09T08:33:58.199Z,26.19
2023-07-09T08:36:27.020Z,26.31
2023-07-09T08:38:55.617Z,26.46
2023-07-09T08:41:37.910Z,26.60
2023-07-09T08:44:23.586Z,26.75
2023-07-09T08:47:01.878Z,26.87
2023-07-09T08:49:39.414Z,27.08
2023-07-09T08:52:16.617Z,27.29
2023-07-09T08:54:46.356Z,27.47
2023-07-09T08:57:21.258Z,27.65
2023-07-09T08:59:51.658Z,27.84
2023-07-09T09:02:32.353Z,28.05
2023-07-09T09:05:00.030Z,28.19
2023-07-09T09:07:38.724Z,28.40
2023-07-09T09:10:07.158Z,28.62
2023-07-09T09:12:40.582Z,28.80
2023-07-09T09:15:16.946Z,29.02
2023-07-09T09:17:44.790Z,29.24
2023-07-09T09:20:19.630Z,29.49
2023-07-09T09:22:51.109Z,29.68
2023-07-09T09:25:26.248Z,29.94
2023-07-09T09:27:53.928Z,30.14
2023-07-09T09:30:25.325Z,30.36
2023-07-09T09:32:56.393Z,30.61
2023-07-09T09:35:29.837Z,30.90
2023-07-09T09:37:59.639Z,31.13
2023-07-09T09:40:29.532Z,31.39
2023-07-09T09:43:00.337Z,31.63
2023-07-09T09:45:34.080Z,31.84
2023-07-09T09:48:03.139Z,31.94
2023-07-09T09:50:36.933Z,32.08
2023-07-09T09:53:08.953Z,32.27
2023-07-09T09:55:36.818Z,32.50
2023-07-09T09:58:04.493Z,32.67
2023-07-09T10:00:34.539Z,32.87
2023-07-09T10:03:07.972Z,33.11
2023-07-09T10:05:42.263Z,33.39
2023-07-09T10:08:14.433Z,33.61
2023-07-09T10:10:46.983Z,33.78
2023-07-09T10:13:23.954Z,34.04
2023-07-09T10:16:05.674Z,34.16
2023-07-09T10:18:45.001Z,34.12
2023-07-09T10:21:19.545Z,34.17
2023-07-09T10:23:57.149Z,34.31
2023-07-09T10:26:32.082Z,34.39
2023-07-09T10:29:16.280Z,34.43
2023-07-09T10:31:52.804Z,34.64
2023-07-09T10:34:31.134Z,34.99
2023-07-09T10:37:19.565Z,35.26
2023-07-09T10:39:51.915Z,35.47
2023-07-09T10:42:25.786Z,35.53
2023-07-09T10:45:00.043Z,35.62
2023-07-09T10:47:34.643Z,35.70
2023-07-09T10:50:05.691Z,35.79
2023-07-09T10:52:36.971Z,35.85
2023-07-09T10:55:10.220Z,36.03
2023-07-09T10:57:46.740Z,36.24
2023-07-09T11:00:18.528Z,36.38
2023-07-09T11:02:50.124Z,36.55
2023-07-09T11:05:19.671Z,36.61
2023-07-09T11:07:54.838Z,36.71
2023-07-09T11:10:30.920Z,36.74
2023-07-09T11:13:04.434Z,36.79
2023-07-09T11:15:34.670Z,37.04
2023-07-09T11:18:07.547Z,37.31
2023-07-09T11:20:37.552Z,37.56
2023-07-09T11:23:07.264Z,37.59
2023-07-09T11:25:43.699Z,37.53
2023-07-09T11:28:11.818Z,37.58
2023-07-09T11:30:50.760Z,37.57
2023-07-09T11:33:25.529Z,37.65
2023-07-09T11:35:55.840Z,37.69
2023-07-09T11:38:25.551Z,37.87
2023-07-09T11:40:55.359Z,38.14
2023-07-09T11:43:31.736Z,38.37
2023-07-09T11:46:08.020Z,38.65
2023-07-09T11:48:38.113Z,38.96
2023-07-09T11:51:11.011Z,39.17
2023-07-09T11:53:45.449Z,39.22
2023-07-09T11:56:16.441Z,39.17
2023-07-09T11:58:51.424Z,38.97
2023-07-09T12:01:21.191Z,38.96
2023-07-09T12:03:52.099Z,39.08
2023-07-09T12:06:22.632Z,39.04
2023-07-09T12:08:51.916Z,39.06
2023-07-09T12:11:24.909Z,39.16
2023-07-09T12:13:53.177Z,39.39
2023-07-09T12:16:27.222Z,39.62
2023-07-09T12:18:56.656Z,39.67
2023-07-09T12:21:25.787Z,39.84
2023-07-09T12:23:54.752Z,40.08
2023-07-09T12:26:22.511Z,40.29
2023-07-09T12:28:54.232Z,40.36
2023-07-09T12:31:27.712Z,40.51
2023-07-09T12:33:59.869Z,40.64
2023-07-09T12:36:29.408Z,40.75
2023-07-09T12:39:01.526Z,40.88
2023-07-09T12:41:31.598Z,41.01
2023-07-09T12:43:59.282Z,41.19
2023-07-09T12:46:28.443Z,41.34
2023-07-09T12:48:58.280Z,41.32
2023-07-09T12:51:30.030Z,41.24
2023-07-09T12:54:05.996Z,41.06
2023-07-09T12:56:36.992Z,40.86
2023-07-09T12:59:17.156Z,40.65
2023-07-09T13:01:50.520Z,40.48
2023-07-09T13:04:19.989Z,40.48
2023-07-09T13:06:48.080Z,40.42
2023-07-09T13:09:22.318Z,40.38
2023-07-09T13:11:50.485Z,40.45
2023-07-09T13:14:21.255Z,40.47
2023-07-09T13:16:49.432Z,40.39
2023-07-09T13:19:17.116Z,40.32
2023-07-09T13:21:46.595Z,40.43
2023-07-09T13:24:17.915Z,40.51
2023-07-09T13:26:45.539Z,40.67
2023-07-09T13:29:15.543Z,40.78
2023-07-09T13:31:43.991Z,40.92
2023-07-09T13:34:22.237Z,41.02
2023-07-09T13:36:52.761Z,40.84
2023-07-09T13:39:21.809Z,40.53
2023-07-09T13:41:51.652Z,40.16
2023-07-09T13:44:21.314Z,40.03
2023-07-09T13:46:49.031Z,40.12
2023-07-09T13:49:18.917Z,40.26
2023-07-09T13:51:48.939Z,40.42
2023-07-09T13:54:20.846Z,40.38
2023-07-09T13:56:48.569Z,40.49
2023-07-09T13:59:17.762Z,40.58
2023-07-09T14:01:46.536Z,40.60
2023-07-09T14:04:17.595Z,40.61
2023-07-09T14:06:47.215Z,40.68
2023-07-09T14:09:16.174Z,40.62
2023-07-09T14:11:47.371Z,40.69
2023-07-09T14:14:20.039Z,40.82
2023-07-09T14:16:49.843Z,40.83
2023-07-09T14:19:19.385Z,40.82
2023-07-09T14:21:47.394Z,40.88
2023-07-09T14:24:24.656Z,40.77
2023-07-09T14:26:55.387Z,40.73
2023-07-09T14:29:23.371Z,40.69
2023-07-09T14:31:51.519Z,40.62
2023-07-09T14:34:23.039Z,40.50
2023-07-09T14:36:50.889Z,40.55
2023-07-09T14:39:18.635Z,40.53
2023-07-09T14:41:46.585Z,40.58
2023-07-09T14:44:24.604Z,40.51
2023-07-09T14:46:53.047Z,40.52
2023-07-09T14:49:21.140Z,40.47
2023-07-09T14:51:49.634Z,40.38
2023-07-09T14:54:24.353Z,40.36
2023-07-09T14:56:53.780Z,40.28
2023-07-09T14:59:22.910Z,40.22
2023-07-09T15:01:51.859Z,40.18
2023-07-09T15:04:31.789Z,40.14
2023-07-09T15:07:00.352Z,40.11
2023-07-09T15:09:29.973Z,40.04
2023-07-09T15:12:00.481Z,39.88
2023-07-09T15:14:29.960Z,39.72
2023-07-09T15:17:01.054Z,39.62
2023-07-09T15:19:29.305Z,39.46
2023-07-09T15:21:57.187Z,39.26
2023-07-09T15:24:29.025Z,39.18
2023-07-09T15:26:58.128Z,39.09
2023-07-09T15:29:25.999Z,38.96
2023-07-09T15:31:55.025Z,38.85
2023-07-09T15:34:22.752Z,38.80
2023-07-09T15:36:53.111Z,38.65
2023-07-09T15:39:22.072Z,38.57
2023-07-09T15:41:50.336Z,38.49
2023-07-09T15:44:22.514Z,38.35
2023-07-09T15:46:55.339Z,38.29
2023-07-09T15:49:25.061Z,38.19
2023-07-09T15:51:53.031Z,38.08
2023-07-09T15:54:23.376Z,37.97
2023-07-09T15:56:53.090Z,37.87
2023-07-09T15:59:28.578Z,37.74
2023-07-09T16:01:56.950Z,37.60
2023-07-09T16:04:26.926Z,37.48
2023-07-09T16:06:55.171Z,37.36
2023-07-09T16:09:24.227Z,37.26
2023-07-09T16:11:54.960Z,37.17
2023-07-09T16:14:26.040Z,37.00
2023-07-09T16:16:55.807Z,36.83
2023-07-09T16:19:27.330Z,36.71
2023-07-09T16:21:56.966Z,36.58
2023-07-09T16:24:27.647Z,36.41
2023-07-09T16:26:55.303Z,36.23
2023-07-09T16:29:26.060Z,36.09
2023-07-09T16:31:55.485Z,35.97
2023-07-09T16:34:24.148Z,35.83
2023-07-09T16:36:53.550Z,35.67
2023-07-09T16:39:31.351Z,35.55
2023-07-09T16:42:00.282Z,35.42
2023-07-09T16:44:28.348Z,35.31
2023-07-09T16:46:56.921Z,35.24
2023-07-09T16:49:30.790Z,35.13
2023-07-09T16:52:00.974Z,35.02
2023-07-09T16:54:28.883Z,34.91
2023-07-09T16:56:57.169Z,34.81
2023-07-09T16:59:26.162Z,34.70
2023-07-09T17:01:53.810Z,34.59
2023-07-09T17:04:24.694Z,34.48
2023-07-09T17:06:52.840Z,34.34
2023-07-09T17:09:22.769Z,34.21
2023-07-09T17:11:58.104Z,34.08
2023-07-09T17:14:26.444Z,33.97
2023-07-09T17:16:54.153Z,33.85
2023-07-09T17:19:21.854Z,33.73
2023-07-09T17:21:52.444Z,33.64
2023-07-09T17:24:24.747Z,33.55
2023-07-09T17:26:53.534Z,33.45
2023-07-09T17:29:22.188Z,33.36
2023-07-09T17:31:51.517Z,33.29
2023-07-09T17:34:19.733Z,33.18
2023-07-09T17:36:48.573Z,33.09
2023-07-09T17:39:21.513Z,33.03
2023-07-09T17:41:51.109Z,32.94
2023-07-09T17:44:20.486Z,32.85
2023-07-09T17:46:49.858Z,32.77
2023-07-09T17:49:22.562Z,32.69
2023-07-09T17:51:50.249Z,32.55
2023-07-09T17:54:19.441Z,32.44
2023-07-09T17:56:48.589Z,32.35
2023-07-09T17:59:20.029Z,32.24
2023-07-09T18:01:51.707Z,32.14
2023-07-09T18:04:30.319Z,32.05
2023-07-09T18:07:02.477Z,31.97
2023-07-09T18:09:30.235Z,31.91
2023-07-09T18:11:57.849Z,31.84
2023-07-09T18:14:32.485Z,31.77
2023-07-09T18:17:00.247Z,31.69
2023-07-09T18:19:29.807Z,31.63
2023-07-09T18:22:02.267Z,31.55
2023-07-09T18:24:29.989Z,31.46
2023-07-09T18:26:57.749Z,31.38
2023-07-09T18:29:32.752Z,31.28
2023-07-09T18:32:03.988Z,31.18
2023-07-09T18:34:32.390Z,31.08
2023-07-09T18:37:03.417Z,30.99
2023-07-09T18:39:31.164Z,30.87
2023-07-09T18:41:58.924Z,30.77
2023-07-09T18:44:28.826Z,30.68
2023-07-09T18:46:56.589Z,30.57
2023-07-09T18:49:24.328Z,30.46
2023-07-09T18:51:52.188Z,30.38
2023-07-09T18:54:22.762Z,30.27
2023-07-09T18:56:50.538Z,30.17
2023-07-09T18:59:20.173Z,30.07
2023-07-09T19:01:50.893Z,29.98
2023-07-09T19:04:20.428Z,29.85
2023-07-09T19:06:49.246Z,29.76
2023-07-09T19:09:19.055Z,29.66
2023-07-09T19:11:49.273Z,29.57
2023-07-09T19:14:17.244Z,29.47
2023-07-09T19:16:50.190Z,29.36
2023-07-09T19:19:20.891Z,29.24
2023-07-09T19:21:51.160Z,29.13
2023-07-09T19:24:23.667Z,29.04
2023-07-09T19:26:52.760Z,28.94
2023-07-09T19:29:22.216Z,28.84
2023-07-09T19:31:54.264Z,28.77
2023-07-09T19:34:24.210Z,28.67
2023-07-09T19:36:56.211Z,28.61
2023-07-09T19:39:28.653Z,28.53
2023-07-09T19:42:01.395Z,28.45
2023-07-09T19:44:29.056Z,28.36
2023-07-09T19:46:59.781Z,28.29
2023-07-09T19:49:27.416Z,28.20
2023-07-09T19:51:55.066Z,28.12
2023-07-09T19:54:22.673Z,28.06
2023-07-09T19:56:50.367Z,28.00
2023-07-09T19:59:19.807Z,27.93
2023-07-09T20:01:49.262Z,27.87
2023-07-09T20:04:18.457Z,27.78
2023-07-09T20:06:46.191Z,27.73
2023-07-09T20:09:15.160Z,27.66
2023-07-09T20:11:44.541Z,27.60
2023-07-09T20:14:16.064Z,27.52
2023-07-09T20:16:43.785Z,27.47
2023-07-09T20:19:14.814Z,27.41
2023-07-09T20:21:45.903Z,27.33
2023-07-09T20:24:17.185Z,27.25
2023-07-09T20:26:44.962Z,27.18
2023-07-09T20:29:14.709Z,27.12
2023-07-09T20:31:43.320Z,27.04
2023-07-09T20:34:16.256Z,26.99
2023-07-09T20:36:45.568Z,26.93
2023-07-09T20:39:15.486Z,26.86
2023-07-09T20:41:45.068Z,26.79
2023-07-09T20:44:14.560Z,26.73
2023-07-09T20:46:42.776Z,26.66
2023-07-09T20:49:22.667Z,26.59
2023-07-09T20:51:51.678Z,26.51
2023-07-09T20:54:19.426Z,26.45
2023-07-09T20:56:47.193Z,26.41
2023-07-09T20:59:19.094Z,26.36
2023-07-09T21:01:47.681Z,26.29
2023-07-09T21:04:17.943Z,26.26
2023-07-09T21:06:46.777Z,26.22
2023-07-09T21:09:19.504Z,26.18
2023-07-09T21:11:50.014Z,26.15
2023-07-09T21:14:18.493Z,26.11
2023-07-09T21:16:49.503Z,26.05
2023-07-09T21:19:23.750Z,26.01
2023-07-09T21:21:51.994Z,25.98
2023-07-09T21:24:25.936Z,25.95
2023-07-09T21:26:54.678Z,25.92
2023-07-09T21:29:22.525Z,25.88
2023-07-09T21:31:51.877Z,25.83
2023-07-09T21:34:22.897Z,25.80
2023-07-09T21:36:50.939Z,25.78
2023-07-09T21:39:20.435Z,25.78
2023-07-09T21:41:54.658Z,25.75
2023-07-09T21:44:23.184Z,25.73
2023-07-09T21:46:53.741Z,25.70
2023-07-09T21:49:23.720Z,25.68
2023-07-09T21:51:51.673Z,25.67
2023-07-09T21:54:58.793Z,25.67
2023-07-09T21:57:21.646Z,25.56
2023-07-09T21:59:49.366Z,25.49
2023-07-09T22:02:20.553Z,25.50
2023-07-09T22:04:51.408Z,25.63
2023-07-09T22:07:22.087Z,25.76
2023-07-09T22:09:50.295Z,25.85
2023-07-09T22:12:21.254Z,25.90
2023-07-09T22:14:52.450Z,25.91
2023-07-09T22:17:26.955Z,25.85
2023-07-09T22:19:55.415Z,25.81
2023-07-09T22:22:23.330Z,25.73
2023-07-09T22:24:51.409Z,25.64
2023-07-09T22:27:19.495Z,25.54
2023-07-09T22:29:47.180Z,25.47
2023-07-09T22:32:19.636Z,25.40
2023-07-09T22:34:47.706Z,25.33
2023-07-09T22:37:20.744Z,25.25
2023-07-09T22:39:48.464Z,25.15
2023-07-09T22:42:16.110Z,25.08
2023-07-09T22:44:44.357Z,24.98
2023-07-09T22:47:19.273Z,24.86
2023-07-09T22:49:47.752Z,24.71
2023-07-09T22:52:16.775Z,24.61
2023-07-09T22:54:45.720Z,24.52
2023-07-09T22:57:16.488Z,24.43
2023-07-09T22:59:44.109Z,24.34
2023-07-09T23:02:12.573Z,24.28
2023-07-09T23:04:41.958Z,24.23
2023-07-09T23:07:12.647Z,24.17
2023-07-09T23:09:41.009Z,24.11
2023-07-09T23:12:13.286Z,24.06
2023-07-09T23:14:41.169Z,23.99
2023-07-09T23:17:13.352Z,23.93
2023-07-09T23:19:42.886Z,23.85
2023-07-09T23:22:10.683Z,23.80
2023-07-09T23:24:38.395Z,23.75
2023-07-09T23:27:07.281Z,23.68
2023-07-09T23:29:34.929Z,23.64
2023-07-09T23:32:02.583Z,23.57
2023-07-09T23:34:30.242Z,23.52
2023-07-09T23:36:59.268Z,23.49
2023-07-09T23:39:29.221Z,23.46
2023-07-09T23:41:58.521Z,23.41
2023-07-09T23:44:30.814Z,23.37
2023-07-09T23:46:59.110Z,23.33
2023-07-09T23:49:29.102Z,23.31
2023-07-09T23:51:59.664Z,23.28
2023-07-09T23:54:27.344Z,23.25
2023-07-09T23:56:55.398Z,23.22
2023-07-09T23:59:32.040Z,23.20
